East Marion, NY

9:00 PM EDT on May 05, 2015 (GMT -0400)
Montauk | | Change Station
CLOSE
Current Station
Airport
Location: Montauk,
Elevation: 7 ft
Nearby Weather Stations

Elev 7 ft 41.07 °N, 71.92 °W | Updated 2 hours ago

Partly Cloudy
Partly Cloudy
58 °F
Feels Like 58 °F
N
5
Wind Variable Wind from SE
Gusts mph

Today
High -- | Low -- °F
--% Chance of Precip.
Yesterday
High -- | Low -- °F
Precip. -- in
5:42 AM 7:50 PM
Waning Gibbous, 96% visible
Pressure 30.18 in
Visibility -9999.0 miles
Clouds
Dew Point 49 °F
Humidity 72%
Rainfall 0.00 in
Snow Depth Not available.
UV Not available.
Pollen 9.00 out of 12
Air Quality Not available.
Flu Activity Widespread
METAR KMTP 052254Z AUTO 13004KT 14/09 A3017 RMK AO1 SLP218 T01440094

More Conditions Fewer Conditions

Pressure 30.18 in
Visibility -9999.0 miles
Clouds
Dew Point 49 °F
Humidity 72%
Rainfall 0.00 in
Snow Depth Not available.
UV Not available.
Pollen 9.00 out of 12
Air Quality Not available.
Flu Activity Widespread
METAR KMTP 052254Z AUTO 13004KT 14/09 A3017 RMK AO1 SLP218 T01440094

More Conditions Fewer Conditions

10-Day Weather Forecast

Almanac

Astronomy

May. 05, 2015 Rise Set
Actual Time
Civil Twilight
Nautical Twilight
Astronomical Twilight
Moon
Length of Visible Light
Length of Day
Tomorrow will be .
, % of the Moon is Illuminated

Today's Extremes

State Highs State Lows

Community

WunderPhotos

Upload Photos

1,819,026 photos uploaded!

WunderBlogs® & News

Nearby

Air Quality

  Air Quality AQ Index Pollutant
Not available.

Snow Depth

Station Depth Elevation

Earthquake Activity

City Distance Mag. Time & Date
Minimum magnitude displayed is 2.5.

Coastal Water Temperatures

Place Temperature

Stations

Nearby Weather Stations

Station Location Temp. Windchill Dew Point Humidity Wind Precip. Elev Updated Type